Flight Track Log - Related Links

Times and Time Zones

All times are in EDT time to prevent confusion due to time zone crossing. See the N799GK flight status page for this flight to view local times or setup timezone preferences in your user account.

Time Position Orientation Groundspeed Altitude Reporting Facility
EDT Latitude Longitude Course Direction KTS MPH feet Rate Location/Type
Mon 05:43:09 PM 36.2244 -95.8856 37° Northeast 125 144 2,000  Level Kansas City Center
Mon 05:44:07 PM 36.2311 -95.8419 79° East 152 175 3,100 1,109 Climbing Kansas City Center
Mon 05:45:08 PM 36.2000 -95.7956 130° Southeast 180 207 4,200 1,187 Climbing Kansas City Center
Mon 05:47:09 PM 36.0983 -95.8089 186° South 183 211 6,700 1,187 Climbing Kansas City Center
Mon 05:48:00 PM 35.6974 -96.0506 208° Southwest  Level Estimated
Mon 05:48:10 PM 36.0483 -95.8153 186° South 182 209 7,800  Level Kansas City Center
Mon 05:49:11 PM 35.9967 -95.8219 186° South 186 214 8,700 977 Climbing Kansas City Center
Mon 05:50:19 PM 35.9358 -95.8289 185° South 190 219 9,900 1,062 Climbing Kansas City Center
Mon 05:51:21 PM 35.8808 -95.8367 187° South 196 226 11,000 1,161 Climbing Kansas City Center
Mon 05:52:23 PM 35.8306 -95.8433 186° South 187 215 12,300 1,065 Climbing Kansas City Center
Mon 05:53:25 PM 35.7808 -95.8536 190° South 182 209 13,200 823 Climbing Kansas City Center
Mon 05:54:27 PM 35.7292 -95.8608 186° South 185 213 14,000 435 Climbing Kansas City Center
Mon 05:55:29 PM 35.6592 -95.8764 190° South 208 239 14,100 48 Climbing Kansas City Center
Mon 05:56:31 PM 35.6058 -95.9125 209° Southwest 216 249 14,100  Level Kansas City Center
Mon 05:57:33 PM 35.5478 -95.9414 202° Southwest 221 254 14,100  Level Kansas City Center
Mon 05:58:35 PM 35.4864 -95.9547 190° South 223 257 14,100  Level Kansas City Center
Mon 06:00:47 PM 35.3439 -95.9908 192° South 227 261 14,100  Level Fort Worth Center
Mon 06:01:46 PM 35.2858 -96.0250 206° Southwest 227 261 14,100  Level Fort Worth Center
Mon 06:02:46 PM 35.2300 -96.0539 203° Southwest 227 261 14,100  Level Fort Worth Center
Mon 06:03:47 PM 35.1739 -96.0828 203° Southwest 232 267 14,100  Level Fort Worth Center
Mon 06:04:47 PM 35.1158 -96.1039 197° South 227 261 14,100  Level Fort Worth Center
Mon 06:05:47 PM 35.0533 -96.1250 195° South 227 261 14,100  Level Fort Worth Center
Mon 06:06:47 PM 34.9953 -96.1464 197° South 227 261 14,100  Level Fort Worth Center
Mon 06:07:47 PM 34.9369 -96.1700 198° South 227 261 14,100  Level Fort Worth Center
Mon 06:08:46 PM 34.8789 -96.1986 202° Southwest 227 261 14,100  Level Fort Worth Center
Mon 06:09:47 PM 34.8228 -96.2247 201° Southwest 227 261 14,100  Level Fort Worth Center
Mon 06:10:47 PM 34.7625 -96.2508 200° South 227 261 14,100  Level Fort Worth Center
Mon 06:11:47 PM 34.7044 -96.2719 197° South 227 261 14,100  Level Fort Worth Center
Mon 06:12:47 PM 34.6461 -96.2953 198° South 227 261 14,100 -50 Level Fort Worth Center
Mon 06:13:47 PM 34.5944 -96.3264 206° Southwest 221 254 14,000 -500 Descending Fort Worth Center
Mon 06:14:47 PM 34.5383 -96.3522 201° Southwest 221 254 13,100 -750 Descending Fort Worth Center
Mon 06:15:47 PM 34.4758 -96.3731 195° South 227 261 12,500 -550 Descending Fort Worth Center
Mon 06:16:47 PM 34.4156 -96.3939 196° South 227 261 12,000 -655 Descending Fort Worth Center
Mon 06:17:46 PM 34.3572 -96.4147 196° South 227 261 11,200 -750 Descending Fort Worth Center
Mon 06:18:47 PM 34.3011 -96.4431 203° Southwest 227 261 10,500 -694 Descending Fort Worth Center
Mon 06:19:47 PM 34.2450 -96.4714 203° Southwest 227 261 9,800 -800 Descending Fort Worth Center
Mon 06:20:47 PM 34.1889 -96.4944 199° South 222 255 8,900 -950 Descending Fort Worth Center
Mon 06:21:47 PM 34.1325 -96.5153 197° South 222 255 7,900 -857 Descending Fort Worth Center
Mon 06:22:46 PM 34.0783 -96.5208 185° South 216 249 7,200 -600 Descending Fort Worth Center
Mon 06:23:47 PM 34.0264 -96.5489 204° Southwest 216 249 6,700 -595 Descending Fort Worth Center
Mon 06:24:47 PM 33.9744 -96.5769 204° Southwest 211 243 6,000 -750 Descending Fort Worth Center
Mon 06:25:47 PM 33.9225 -96.6125 210° Southwest 211 243 5,200 -807 Descending Fort Worth Center
Mon 06:26:46 PM 33.8725 -96.6406 205° Southwest 211 243 4,400 -550 Descending Fort Worth Center
Mon 06:27:47 PM 33.8206 -96.6733 208° Southwest 206 237 4,100 -150 Descending Fort Worth Center
Mon 06:28:46 PM 33.8250 -96.7058 279° West 130 150 4,100  Level Fort Worth Center
Mon 06:29:47 PM 33.8519 -96.6706 47° Northeast 26 30 4,100 -198 Level Fort Worth Center
Mon 06:30:47 PM 33.8894 -96.6578 16° North 83 96 3,700 -450 Descending Fort Worth Center
Mon 06:31:47 PM 33.9183 -96.6150 51° Northeast 131 151 3,200 -500 Descending Fort Worth Center

Login

Don't have an account? Register now (free) for customized features, flight alerts, and more!